Forside
METAR-TAF:

METAR-TAF

Lufthavne :

Pointe-à-Pitre, Guadeloupe

Breddekreds: 16-16N, længdekreds: 061-31W, højde: 11 m

Aktuelle vejr

Denne rapport blev lavet for 10 minutter siden, kl. 00:30 UTC
Vind 6 kt fra øst
Temperatur 25°C
Fugtighed 83%
Tryk 1016 hPa
Sigt 10 km eller mere
ingen skyer under 1500m og ingen cumulonimbus

METAR: TFFR 260030Z AUTO 09006KT CAVOK 25/22 Q1016 TEMPO 4000 SHRA BKN018TCU

Tid: 20:40 (00:40 UTC)

Vejrudsigter

Denne rapport blev lavet for 1 time og 40 minutter siden, kl. 23:00 UTC
Foreløbig gælder fra 26 på 00 UTC til 26 på 24 UTC
Vind 8 kt fra østsydøst
Sigt 10 km eller mere
Brudte skyer i en højde af 3000 ft
Sandsynlighed 30% :
Midlertidig
fra 26 på 02 UTC til 26 på 10 UTC
Sigt: 4000 m
Brudte skyer i en højde af 1800 ft, Optårnet Cumulus.
regnbyger

TAF: TFFR 252300Z 2600/2624 11008KT 9999 BKN030 PROB30 TEMPO 2602/2610 4000 SHRA BKN018TCU

Vejrobservationer og prognoser fra mere end 4000 lufthavne (METAR og TAF).

De gule og røde prikker repræsenterer de meteorologiske stationer.

Flyt musen over at se navnet på stationen.

Så klik over at se vejr observationer og prognoser.

At skifte det kort: Klik på de grønne knapper med et sort kors for at zoome ind; på den grønne knap med en bindestreg for at zoome ud; eller på de grønne pile for tilstødende kort.


METAR-TAF: